Startpagina
METAR-TAF:

METAR-TAF

Vliegvelden :

São Gabriel da Cachoeira, Amazonas, Brazilië

breedte: 00-08S, lengte: 067-05W, hoogte: 90 m

Actueel weer

Dit bericht is 28 minuten geleden gemaakt, om 19:00 UTC
Wind 3 kt uit het zuidwesten
Temperatuur 33°C
Vochtigheid 56%
Druk 1005 hPa
Zicht 10 km of meer
Verspreide wolken op 2000 ft
Weinig wolken op 2500 ft, Stapelwolken.

METAR: SBUA 121900Z 22003KT 9999 SCT020 FEW025TCU 33/23 Q1005

Tijdstip: 15:28 (19:28 UTC)


TAF: ontbreekt

Waarnemingen en weersverwachtingen van meer dan 4000 vliegvelden (METAR en TAF).

De beschikbare stations zijn de gele en rode punten op de kaart.

Ga met uw muis naar het station om de naam te zien.

Klik dan om waarnemingen en weersverwachtingen te zien.

kaart wijzigen: klik op de groene knoppen met een zwart kruis om in te zoomen, op de groene knop met een streepje om uit te zoomen of op de groene pijlen voor aangrenzende kaarten.


METAR-TAF: